• Join FlightAware (Why Join?)
  • Login
  • US Flag 
12:19AM EDT


 

Airport Tracker/Info


-or-


 

Live Flight TrackerFlight Track Log ✈ N721ST ✈ 26-Jun-2013 ✈ KDAL - KSAT

Flight Track Log - Related Links

Times and Time Zones

All times are in EDT time to prevent confusion due to time zone crossing. See the N721ST flight status page for this flight to view local times or setup timezone preferences in your user account.

Time Position Orientation Groundspeed Altitude Reporting Facility
EDT Latitude Longitude Course Direction KTS MPH feet Rate Location/Type
09:26PM 32.7500 -96.7333 151° Southeast 271 312 4,900  Level Dallas / Fort Worth TRACON
09:27PM 32.7000 -96.7000 151° Southeast 269 310 5,500 1,740 Climbing Dallas / Fort Worth TRACON
09:29PM 32.5503 -96.8219 214° Southwest 296 341 10,300 2,220 Climbing Fort Worth Center
09:30PM 32.4814 -96.8692 210° Southwest 318 366 12,600 2,340 Climbing Fort Worth Center
09:31PM 32.3794 -96.8992 194° South 335 386 15,000 2,100 Climbing Fort Worth Center
09:32PM 32.2958 -96.9267 196° South 348 400 16,800 1,860 Climbing Fort Worth Center
09:33PM 32.1978 -96.9567 195° South 362 417 18,800 1,800 Climbing Fort Worth Center
09:34PM 32.0958 -96.9917 196° South 369 425 20,400 1,680 Climbing Fort Worth Center
09:35PM 31.9936 -97.0239 195° South 381 438 22,200 1,620 Climbing Fort Worth Center
09:36PM 31.8808 -97.0611 196° South 381 438 23,700 1,260 Climbing Fort Worth Center
09:37PM 31.7767 -97.0933 195° South 381 438 24,800 1,020 Climbing Fort Worth Center
09:38PM 31.6703 -97.1278 195° South 398 458 25,800 600 Climbing Fort Worth Center
09:39PM 31.5575 -97.1597 194° South 403 464 26,000 60 Climbing Fort Worth Center
09:40PM 31.4397 -97.1972 195° South 431 496 26,000  Level Houston Center
09:41PM 31.3186 -97.2361 195° South 443 510 26,000  Level Houston Center
09:42PM 31.1969 -97.2750 195° South 448 516 26,000  Level Houston Center
09:43PM 31.0750 -97.3147 196° South 452 520 26,000  Level Houston Center
09:44PM 30.9356 -97.3567 194° South 462 532 26,000  Level Houston Center
09:45PM 30.8083 -97.3969 195° South 466 536 26,000  Level Houston Center
09:46PM 30.6850 -97.4353 195° South 457 526 26,000 -540 Level Houston Center
09:47PM 30.5597 -97.4739 195° South 460 529 24,900 -1,680 Descending Houston Center
09:48PM 30.4261 -97.5158 195° South 487 560 22,600 -2,280 Descending Houston Center
09:49PM 30.3078 -97.5803 205° Southwest 468 539 20,300 -2,280 Descending Houston Center
09:50PM 30.1983 -97.6567 211° Southwest 450 518 18,000 -2,100 Descending Houston Center
09:51PM 30.0917 -97.7283 210° Southwest 442 509 16,000 -2,100 Descending Houston Center
09:52PM 29.9772 -97.8069 211° Southwest 432 497 13,700 -1,980 Descending Houston Center
09:53PM 29.8872 -97.8894 218° Southwest 418 481 12,000 -1,740 Descending Houston Center
09:54PM 29.8375 -98.0050 244° Southwest 402 463 10,200 -1,800 Descending Houston Center
09:55PM 29.7961 -98.1028 244° Southwest 311 358 8,400 -1,740 Descending Houston Center
09:56PM 29.7606 -98.1856 244° Southwest 290 334 6,700 -1,200 Descending Houston Center
09:57PM 29.7267 -98.2658 244° Southwest 280 322 6,000 -540 Descending Houston Center
09:59PM 29.7019 -98.3539 252° West 266 306 5,700 -1,140 Descending Houston Center
10:00PM 29.6892 -98.4358 260° West 262 302 3,700 -1,380 Descending Houston Center
10:01PM 29.6781 -98.5231 262° West 276 318 3,000 -360 Descending Houston Center
10:02PM 29.6564 -98.5839 248° West 202 232 3,000 -240 Level Houston Center
10:03PM 29.6111 -98.5614 157° South 178 205 2,600 -600 Descending Houston Center
10:04PM 29.5789 -98.5319 142° Southeast 154 177 1,900 -720 Descending Houston Center
10:05PM 29.5528 -98.4975 131° Southeast 135 155 1,200 -540 Descending Houston Center
10:06PM 29.5344 -98.4725 130° Southeast 126 145 800 -420 Descending Houston Center
10:08PM 29.5333 -98.4667 16° North  Level FlightAware Approximate